Wokal Field Glasgow International Airport
KGGW : now visible

Airfield :











YOU CAN JOIN US ON...

 
LOGIN :

Register | Disclaimer

   EN    FR    IT 

 









Legend :    VFR   Marginal VFR   IFR   Intensive IFR   Very Intensive IFR
Visi :
Ceiling :
>= 8 km
>= 3000ft
5 to 8 km
1000 to 3000 ft
1500m to 5 km
500 to 1000 ft
800 to 1500m
200 to 500 ft
< 800m
< 200 ft
Symbols :   Thunderstorms  Fog  Heavy snow  Heavy precipitations  Wind > 20 kt






- Airport Elevation : 2296 ft
- IATA code : GGW


KGGW - Wokal Field Glasgow International

CURRENT METAR :
  • 011753Z AUTO 33022KT 1 1/2SM -SN FEW013 BKN024 OVC034 M08/M13 A3009 RMK AO2 PK WND 33027/1747 SLP228 P0000 60012 T10831133 11067 21089 51015

EXPIRED METARs :
  • 011653Z AUTO 33020KT 1SM -SN BKN015 OVC036 M09/M13 A3009 RMK AO2 SLP226 P0001 T10891128
  • 011623Z AUTO 32017KT 1/2SM SN VV012 M09/M13 A3008 RMK AO2 P0001 T10891128
  • 011614Z AUTO 33018KT 1/4SM +SN VV012 M09/M12 A3008 RMK AO2 P0001 T10891122
  • 011553Z AUTO 33016KT 1/2SM SN VV013 M09/M13 A3008 RMK AO2 SLP222 P0004 T10891128

TAF KGGW
Valid from the 01 at 18:00 until the 02 at 18:00 UTC


011720Z 0118/0218 33017G23KT 2SM -SN BKN015
FM012100 33016G24KT P6SM VCSH BKN015
FM020000 32013KT P6SM BKN025
FM020300 VRB06KT P6SM SCT050



MET'MAP, your aeronautical weather chart ! - Copyright ORBIFLY December 2007 - Disclaimer

ORBIFLY MET'MAP TEAM :

Programming & Development : Alexandra Zaïnal
Concept & original design : Baudouin d'Aumeries
Assistance for programming : Marc-Olivier Méhu
Technical & hardware support : Manuel Goepfert

Contact : metmap@orbifly.com




SOURCES & CREDITS :

   NOAA       Earth
Advisory